Time;durP1;ratioP1;P1;durP2;ratioP2;P2;SDS_P1;SDS_P2;PMS_P1;PMS_P2;Temp;Humidity;BMP_temperature;BMP_pressure;BME280_temperature;BME280_humidity;BME280_pressure;Samples;Min_cycle;Max_cycle;Signal;HPM_P1;HPM_P2
2024/02/11 00:01:02;;;;;;;44.70;40.30;;;9.70;99.90;;;;;;5080022;28;20041;-76
2024/02/11 00:03:27;;;;;;;44.92;40.42;;;9.70;99.90;;;;;;5071017;28;20052;-78
2024/02/11 00:05:57;;;;;;;45.58;40.97;;;9.80;99.90;;;;;;5098914;28;20036;-76
2024/02/11 00:08:24;;;;;;;46.03;41.63;;;9.80;99.90;;;;;;5044132;28;20056;-77
2024/02/11 00:10:52;;;;;;;45.75;41.15;;;9.80;99.90;;;;;;5067501;28;20036;-77
2024/02/11 00:13:17;;;;;;;46.15;41.50;;;9.80;99.90;;;;;;5041084;28;20053;-77
2024/02/11 00:15:43;;;;;;;47.17;42.47;;;9.80;99.90;;;;;;5044908;28;20054;-78
2024/02/11 00:18:11;;;;;;;47.10;42.30;;;9.80;99.90;;;;;;5089130;28;20126;-78
2024/02/11 00:20:38;;;;;;;48.90;43.90;;;9.80;99.90;;;;;;5090912;28;20060;-76
2024/02/11 00:23:04;;;;;;;47.28;42.67;;;9.80;99.90;;;;;;5067283;28;20048;-76
2024/02/11 00:25:30;;;;;;;47.17;42.20;;;9.80;99.90;;;;;;5080470;28;20048;-76
2024/02/11 00:27:59;;;;;;;46.97;42.28;;;9.80;99.90;;;;;;5079840;28;20049;-76
2024/02/11 00:30:28;;;;;;;49.05;43.97;;;9.90;99.90;;;;;;5063782;28;20040;-76
2024/02/11 00:32:56;;;;;;;48.63;43.75;;;9.90;99.90;;;;;;5078144;28;20090;-76
2024/02/11 00:35:27;;;;;;;47.28;42.25;;;9.90;99.90;;;;;;5050110;28;20427;-77
2024/02/11 00:37:53;;;;;;;47.67;42.97;;;9.90;99.90;;;;;;5096252;28;20052;-76
2024/02/11 00:40:22;;;;;;;48.80;43.97;;;9.80;99.90;;;;;;5052424;28;20044;-77
2024/02/11 00:42:48;;;;;;;47.80;42.90;;;9.80;99.90;;;;;;5068339;28;20123;-76
2024/02/11 00:45:13;;;;;;;46.45;41.70;;;9.80;99.90;;;;;;5099139;28;20239;-76
2024/02/11 00:47:40;;;;;;;46.90;42.20;;;9.80;99.90;;;;;;5068625;28;20443;-76
2024/02/11 00:50:14;;;;;;;47.83;42.83;;;9.80;99.90;;;;;;5063279;28;20105;-76
2024/02/11 00:52:44;;;;;;;47.65;42.65;;;9.90;99.90;;;;;;5056125;28;20507;-76
2024/02/11 00:55:21;;;;;;;45.78;41.13;;;9.80;99.90;;;;;;5079875;28;20056;-76
2024/02/11 00:57:47;;;;;;;44.60;40.08;;;9.80;99.90;;;;;;5067785;28;20059;-76
2024/02/11 01:00:15;;;;;;;44.75;40.08;;;9.80;99.90;;;;;;5064272;28;20040;-76
2024/02/11 01:02:41;;;;;;;44.30;39.75;;;9.80;99.90;;;;;;5051531;28;20522;-76
2024/02/11 01:05:08;;;;;;;46.33;41.60;;;9.80;99.90;;;;;;5075368;28;20449;-76
2024/02/11 01:07:41;;;;;;;45.17;40.53;;;9.80;99.90;;;;;;5055506;28;20586;-76
2024/02/11 01:10:11;;;;;;;43.10;38.70;;;9.80;99.90;;;;;;5054470;28;20722;-76
2024/02/11 01:12:41;;;;;;;42.05;37.75;;;9.80;99.90;;;;;;5089884;28;20048;-75
2024/02/11 01:15:11;;;;;;;42.88;38.33;;;9.80;99.90;;;;;;5071816;28;20077;-75
2024/02/11 01:17:38;;;;;;;41.78;37.42;;;9.80;99.90;;;;;;5054001;28;20041;-75
2024/02/11 01:20:06;;;;;;;42.08;37.03;;;9.80;99.90;;;;;;5051032;28;20090;-76
2024/02/11 01:22:33;;;;;;;40.00;35.70;;;9.80;99.90;;;;;;5063227;28;20136;-75
2024/02/11 01:24:59;;;;;;;41.25;36.95;;;9.80;99.90;;;;;;5087980;28;20067;-75
2024/02/11 01:27:24;;;;;;;39.50;35.30;;;9.80;99.90;;;;;;5083593;28;20368;-76
2024/02/11 01:29:50;;;;;;;39.95;35.65;;;9.80;99.90;;;;;;5102323;28;20500;-75
2024/02/11 01:32:16;;;;;;;41.35;36.88;;;9.80;99.90;;;;;;5069518;28;20037;-76
2024/02/11 01:34:45;;;;;;;40.05;35.92;;;9.80;99.90;;;;;;5041254;28;20074;-75
2024/02/11 01:37:10;;;;;;;39.95;35.85;;;9.80;99.90;;;;;;5086220;27;20068;-76
2024/02/11 01:39:38;;;;;;;40.58;36.38;;;9.80;99.90;;;;;;5049053;28;20127;-76
2024/02/11 01:42:04;;;;;;;39.40;35.33;;;9.80;99.90;;;;;;5101084;28;20047;-75
2024/02/11 01:44:30;;;;;;;39.78;34.80;;;9.80;99.90;;;;;;5086682;28;20048;-75
2024/02/11 01:46:56;;;;;;;38.85;34.65;;;9.70;99.90;;;;;;5095081;28;20079;-77
2024/02/11 01:49:23;;;;;;;41.60;34.40;;;9.80;99.90;;;;;;5076901;28;20056;-76
2024/02/11 01:51:51;;;;;;;38.38;34.30;;;9.80;99.90;;;;;;5049002;28;20049;-75
2024/02/11 01:54:17;;;;;;;39.15;34.97;;;9.70;99.90;;;;;;5069842;28;20090;-75
2024/02/11 01:56:47;;;;;;;36.83;32.92;;;9.70;99.90;;;;;;5059205;28;20052;-75
2024/02/11 01:59:14;;;;;;;36.15;32.38;;;9.70;99.90;;;;;;5069324;28;20028;-75
2024/02/11 02:01:40;;;;;;;37.38;33.45;;;9.70;99.90;;;;;;5069301;28;20086;-75
2024/02/11 02:04:07;;;;;;;36.80;32.92;;;9.70;99.90;;;;;;5084716;28;20052;-75
2024/02/11 02:06:33;;;;;;;35.95;31.60;;;9.70;99.90;;;;;;5064785;28;20645;-75
2024/02/11 02:09:03;;;;;;;35.95;32.03;;;9.80;99.90;;;;;;5065984;28;20520;-76
2024/02/11 02:11:30;;;;;;;34.80;31.20;;;9.70;99.90;;;;;;5047919;28;20102;-77
2024/02/11 02:13:55;;;;;;;36.60;32.65;;;9.70;99.90;;;;;;5080045;28;20152;-76
2024/02/11 02:16:24;;;;;;;35.88;32.05;;;9.80;99.90;;;;;;5048992;28;20576;-75
2024/02/11 02:18:51;;;;;;;34.15;30.30;;;9.70;99.90;;;;;;5069033;28;20047;-75
2024/02/11 02:21:18;;;;;;;34.95;31.17;;;9.70;99.90;;;;;;5093561;27;20435;-76
2024/02/11 02:23:46;;;;;;;36.50;31.27;;;9.70;99.90;;;;;;5059390;28;20127;-76
2024/02/11 02:26:12;;;;;;;36.42;32.53;;;9.80;99.90;;;;;;5050822;28;20048;-76
2024/02/11 02:28:38;;;;;;;36.33;30.83;;;9.70;99.90;;;;;;5070785;28;20158;-75
2024/02/11 02:31:06;;;;;;;36.33;32.08;;;9.70;99.90;;;;;;5074434;28;20068;-76
2024/02/11 02:33:36;;;;;;;33.90;30.30;;;9.70;99.90;;;;;;5055260;28;20037;-77
2024/02/11 02:36:03;;;;;;;35.65;31.85;;;9.70;99.90;;;;;;5081785;28;20048;-77
2024/02/11 02:38:28;;;;;;;38.05;31.33;;;9.70;99.90;;;;;;5098826;27;20072;-78
2024/02/11 02:40:54;;;;;;;34.72;29.73;;;9.70;99.90;;;;;;5100589;28;20133;-78
2024/02/11 02:43:25;;;;;;;36.22;30.73;;;9.70;99.90;;;;;;5099956;28;20106;-76
2024/02/11 02:45:51;;;;;;;35.22;31.40;;;9.70;99.90;;;;;;5046975;28;20053;-77
2024/02/11 02:48:17;;;;;;;36.22;30.85;;;9.70;99.90;;;;;;5060433;28;20044;-78
2024/02/11 02:50:43;;;;;;;38.75;31.83;;;9.60;99.90;;;;;;5046091;28;20056;-77
2024/02/11 02:53:10;;;;;;;36.30;31.15;;;9.60;99.90;;;;;;5050873;28;20551;-76
2024/02/11 02:55:39;;;;;;;40.58;31.13;;;9.70;99.90;;;;;;5050645;28;20055;-75
2024/02/11 02:58:13;;;;;;;36.38;29.80;;;9.60;99.90;;;;;;5066307;28;20044;-77
2024/02/11 03:00:40;;;;;;;37.72;30.70;;;9.70;99.90;;;;;;5049700;28;20132;-78
2024/02/11 03:03:07;;;;;;;38.53;30.52;;;9.60;99.90;;;;;;5045034;28;20037;-78
2024/02/11 03:05:37;;;;;;;36.42;30.95;;;9.60;99.90;;;;;;5043227;28;20043;-77
2024/02/11 03:08:05;;;;;;;39.47;32.55;;;9.60;99.90;;;;;;5073482;28;20052;-78
2024/02/11 03:10:32;;;;;;;41.58;31.52;;;9.70;99.90;;;;;;5062051;28;20434;-78
2024/02/11 03:12:58;;;;;;;39.80;31.00;;;9.60;99.90;;;;;;5073855;28;20062;-78
2024/02/11 03:15:24;;;;;;;40.83;30.83;;;9.60;99.90;;;;;;5050891;28;20044;-77
2024/02/11 03:17:50;;;;;;;39.17;30.65;;;9.60;99.90;;;;;;5065173;28;20037;-76
2024/02/11 03:20:22;;;;;;;36.47;30.25;;;9.60;99.90;;;;;;5045123;28;20080;-76
2024/02/11 03:22:48;;;;;;;40.63;30.30;;;9.60;99.90;;;;;;5047149;28;20049;-78
2024/02/11 03:25:17;;;;;;;39.40;29.75;;;9.60;99.90;;;;;;5049008;28;20087;-78
2024/02/11 03:27:47;;;;;;;38.65;28.95;;;9.70;99.90;;;;;;5048424;28;20056;-78
2024/02/11 03:30:17;;;;;;;40.17;28.95;;;9.60;99.90;;;;;;5047382;28;20048;-78
2024/02/11 03:32:45;;;;;;;40.00;28.73;;;9.60;99.90;;;;;;5060240;28;20049;-77
2024/02/11 03:35:14;;;;;;;41.75;30.60;;;9.50;99.90;;;;;;5061000;28;20055;-78
2024/02/11 03:37:39;;;;;;;40.75;29.40;;;9.60;99.90;;;;;;5052536;28;20052;-77
2024/02/11 03:40:15;;;;;;;43.92;30.63;;;9.60;99.90;;;;;;5063307;28;20048;-76
2024/02/11 03:42:41;;;;;;;42.97;30.23;;;9.50;99.90;;;;;;5040058;28;20051;-77
2024/02/11 03:45:11;;;;;;;39.03;29.63;;;9.50;99.90;;;;;;5060688;28;20040;-76
2024/02/11 03:47:40;;;;;;;;;;;9.50;99.90;;;;;;5048176;28;20087;-77
2024/02/11 03:50:07;;;;;;;41.55;29.23;;;9.50;99.90;;;;;;5084135;28;20657;-77
2024/02/11 03:52:39;;;;;;;41.80;29.20;;;9.50;99.90;;;;;;5063992;28;20036;-76
2024/02/11 03:55:06;;;;;;;41.55;29.17;;;9.40;99.90;;;;;;5057206;28;20063;-76
2024/02/11 03:57:32;;;;;;;45.28;29.85;;;9.50;99.90;;;;;;5080116;28;20033;-76
2024/02/11 03:59:57;;;;;;;41.10;28.30;;;9.50;99.90;;;;;;5081251;28;20391;-75
2024/02/11 04:02:23;;;;;;;43.88;29.70;;;9.40;99.90;;;;;;5048592;28;20036;-76
2024/02/11 04:04:49;;;;;;;42.08;28.50;;;9.50;99.90;;;;;;5048421;28;20052;-76
2024/02/11 04:07:20;;;;;;;42.95;28.17;;;9.40;99.90;;;;;;5048015;28;20563;-76
2024/02/11 04:09:48;;;;;;;41.25;28.70;;;9.40;99.90;;;;;;5043404;28;20088;-75
2024/02/11 04:12:15;;;;;;;41.15;27.27;;;9.40;99.90;;;;;;5039429;28;20045;-76
2024/02/11 04:14:41;;;;;;;41.67;28.50;;;9.40;99.90;;;;;;5044774;28;20127;-75
2024/02/11 04:17:13;;;;;;;44.53;28.80;;;9.40;99.90;;;;;;5066925;28;20135;-76
2024/02/11 04:19:44;;;;;;;44.22;28.92;;;9.40;99.90;;;;;;5095309;28;20040;-77
2024/02/11 04:22:14;;;;;;;45.30;29.60;;;9.40;99.90;;;;;;5077623;28;20495;-76
2024/02/11 04:24:47;;;;;;;43.20;28.23;;;9.40;99.90;;;;;;5074113;28;20072;-77
2024/02/11 04:27:19;;;;;;;48.85;29.23;;;9.40;99.90;;;;;;5061553;28;20041;-77
2024/02/11 04:29:45;;;;;;;42.45;29.08;;;9.40;99.90;;;;;;5058341;28;20048;-77
2024/02/11 04:32:11;;;;;;;44.00;29.15;;;9.40;99.90;;;;;;5095857;28;20044;-77
2024/02/11 04:34:42;;;;;;;45.53;29.20;;;9.40;99.90;;;;;;5051226;28;20044;-77
2024/02/11 04:37:08;;;;;;;46.60;29.25;;;9.40;99.90;;;;;;5063778;28;20041;-77
2024/02/11 04:39:34;;;;;;;45.97;29.10;;;9.40;99.90;;;;;;5081660;28;20044;-77
2024/02/11 04:41:59;;;;;;;49.10;29.73;;;9.40;99.90;;;;;;5041204;28;20092;-77
2024/02/11 04:44:31;;;;;;;55.65;33.22;;;9.30;99.90;;;;;;5075586;28;20268;-76
2024/02/11 04:47:00;;;;;;;52.22;31.50;;;9.30;99.90;;;;;;5049599;28;20040;-75
2024/02/11 04:49:29;;;;;;;55.65;32.20;;;9.30;99.90;;;;;;5059731;28;20049;-77
2024/02/11 04:51:55;;;;;;;56.28;31.45;;;9.30;99.90;;;;;;5065712;28;20084;-76
2024/02/11 04:54:21;;;;;;;53.05;32.00;;;9.30;99.90;;;;;;5081272;28;20107;-77
2024/02/11 04:56:47;;;;;;;63.80;35.17;;;9.30;99.90;;;;;;5049237;28;20510;-75
2024/02/11 04:59:15;;;;;;;61.53;34.55;;;9.30;99.90;;;;;;5040279;28;20036;-76
2024/02/11 05:01:44;;;;;;;61.10;33.92;;;9.30;99.90;;;;;;5076227;28;20396;-76
2024/02/11 05:04:10;;;;;;;57.13;33.03;;;9.30;99.90;;;;;;5069656;28;20045;-76
2024/02/11 05:06:40;;;;;;;64.35;34.50;;;9.20;99.90;;;;;;5094954;28;20080;-76
2024/02/11 05:09:07;;;;;;;59.92;34.83;;;9.30;99.90;;;;;;5103567;28;20044;-75
2024/02/11 05:11:34;;;;;;;62.15;35.35;;;9.30;99.90;;;;;;5084741;28;20037;-75
2024/02/11 05:14:00;;;;;;;65.45;35.10;;;9.30;99.90;;;;;;5053283;28;20051;-76
2024/02/11 05:16:28;;;;;;;69.57;35.72;;;9.30;99.90;;;;;;5081115;28;20044;-76
2024/02/11 05:18:54;;;;;;;73.28;37.97;;;9.30;99.90;;;;;;5083214;28;20045;-76
2024/02/11 05:21:21;;;;;;;72.93;36.25;;;9.30;99.90;;;;;;5056971;28;20041;-76
2024/02/11 05:23:48;;;;;;;72.10;38.17;;;9.20;99.90;;;;;;5086610;28;20053;-76
2024/02/11 05:26:17;;;;;;;75.30;38.58;;;9.30;99.90;;;;;;5073100;28;20125;-76
2024/02/11 05:28:43;;;;;;;79.13;40.10;;;9.30;99.90;;;;;;5087013;28;20052;-77
2024/02/11 05:31:17;;;;;;;78.35;41.35;;;9.30;99.90;;;;;;5048196;28;20049;-77
2024/02/11 05:33:43;;;;;;;78.47;40.17;;;9.20;99.90;;;;;;5048647;28;20051;-77
2024/02/11 05:36:09;;;;;;;84.18;41.10;;;9.30;99.90;;;;;;5050199;28;20048;-78
2024/02/11 05:38:39;;;;;;;83.55;41.65;;;9.20;99.90;;;;;;5066507;28;20044;-77
2024/02/11 05:41:09;;;;;;;84.28;42.65;;;9.20;99.90;;;;;;5065042;28;20499;-76
2024/02/11 05:43:35;;;;;;;86.85;40.30;;;9.20;99.90;;;;;;5065523;28;20037;-78
2024/02/11 05:46:02;;;;;;;92.88;42.60;;;9.20;99.90;;;;;;5050816;28;20387;-77
2024/02/11 05:48:28;;;;;;;99.35;44.63;;;9.20;99.90;;;;;;5097386;28;20106;-77
2024/02/11 05:50:54;;;;;;;92.90;42.47;;;9.20;99.90;;;;;;5050841;28;20037;-77
2024/02/11 05:53:20;;;;;;;97.40;43.45;;;9.20;99.90;;;;;;5067780;28;20045;-76
2024/02/11 05:55:47;;;;;;;103.05;46.05;;;9.20;99.90;;;;;;5052687;28;20128;-76
2024/02/11 05:58:13;;;;;;;104.70;47.38;;;9.20;99.90;;;;;;5046884;28;20037;-76
2024/02/11 06:00:42;;;;;;;109.13;46.25;;;9.20;99.90;;;;;;5051106;28;20058;-76
2024/02/11 06:03:09;;;;;;;103.20;45.27;;;9.20;99.90;;;;;;5067240;28;20049;-76
2024/02/11 06:05:34;;;;;;;111.47;47.45;;;9.20;99.90;;;;;;5083458;28;20059;-76
2024/02/11 06:08:00;;;;;;;111.35;46.92;;;9.20;99.90;;;;;;5062253;28;20479;-78
2024/02/11 06:10:30;;;;;;;103.10;44.10;;;9.20;99.90;;;;;;5067288;28;20044;-77
2024/02/11 06:12:57;;;;;;;113.38;49.13;;;9.20;99.90;;;;;;5064816;28;20046;-77
2024/02/11 06:15:24;;;;;;;115.70;47.45;;;9.20;99.90;;;;;;5066780;28;20491;-76
2024/02/11 06:17:52;;;;;;;118.15;48.85;;;9.20;99.90;;;;;;5084861;28;20558;-76
2024/02/11 06:20:21;;;;;;;119.10;49.53;;;9.20;99.90;;;;;;5082951;28;20071;-75
2024/02/11 06:22:52;;;;;;;118.82;49.08;;;9.20;99.90;;;;;;5065571;28;20490;-76
2024/02/11 06:25:22;;;;;;;118.97;49.85;;;9.20;99.90;;;;;;5079219;28;20473;-76
2024/02/11 06:27:48;;;;;;;;;;;9.20;99.90;;;;;;5046134;28;20040;-76
2024/02/11 06:30:16;;;;;;;119.60;49.60;;;9.20;99.90;;;;;;5069925;28;19920;-77
2024/02/11 06:32:44;;;;;;;125.65;50.22;;;9.20;99.90;;;;;;5048714;28;20437;-75
2024/02/11 06:35:10;;;;;;;123.22;50.28;;;9.20;99.90;;;;;;5049744;28;20052;-76
2024/02/11 06:37:38;;;;;;;118.30;51.92;;;9.20;99.90;;;;;;5065237;28;20036;-77
2024/02/11 06:40:09;;;;;;;127.55;51.65;;;9.20;99.90;;;;;;5062129;28;20052;-77
2024/02/11 06:42:35;;;;;;;121.45;52.08;;;9.20;99.90;;;;;;5048500;28;20044;-77
2024/02/11 06:45:02;;;;;;;125.22;50.88;;;9.20;99.90;;;;;;5060514;28;20051;-77
2024/02/11 06:47:28;;;;;;;115.22;52.17;;;9.20;99.90;;;;;;5049071;28;20345;-76
2024/02/11 06:49:54;;;;;;;116.90;51.33;;;9.20;99.90;;;;;;5061303;28;20041;-76
2024/02/11 06:52:20;;;;;;;121.22;53.60;;;9.20;99.90;;;;;;5049431;28;20131;-77
2024/02/11 06:54:47;;;;;;;116.50;52.25;;;9.20;99.90;;;;;;5063608;28;20131;-76
2024/02/11 06:57:14;;;;;;;111.03;51.47;;;9.20;99.90;;;;;;5046837;28;20044;-76
2024/02/11 06:59:40;;;;;;;106.50;49.92;;;9.20;99.90;;;;;;5064939;28;20045;-76
2024/02/11 07:02:07;;;;;;;105.38;51.85;;;9.20;99.90;;;;;;5064093;28;20474;-77
2024/02/11 07:04:36;;;;;;;111.45;52.58;;;9.20;99.90;;;;;;5045916;28;20091;-77
2024/02/11 07:07:03;;;;;;;105.45;51.20;;;9.30;99.90;;;;;;5063617;28;20064;-77
2024/02/11 07:09:29;;;;;;;108.88;54.15;;;9.20;99.90;;;;;;5048872;28;20093;-77
2024/02/11 07:11:59;;;;;;;99.45;49.83;;;9.20;99.90;;;;;;5063885;28;20347;-77
2024/02/11 07:14:26;;;;;;;94.93;50.33;;;9.20;99.90;;;;;;5062308;28;20121;-77
2024/02/11 07:16:53;;;;;;;102.50;50.45;;;9.20;99.90;;;;;;5048974;28;20657;-77
2024/02/11 07:19:20;;;;;;;99.57;51.75;;;9.20;99.90;;;;;;5061974;28;20059;-77
2024/02/11 07:21:46;;;;;;;93.45;50.72;;;9.20;99.90;;;;;;5046965;28;20493;-77
2024/02/11 07:24:12;;;;;;;101.82;52.78;;;9.30;99.90;;;;;;5063337;28;20102;-77
2024/02/11 07:26:38;;;;;;;99.57;52.80;;;9.20;99.90;;;;;;5064953;28;20046;-76
2024/02/11 07:29:04;;;;;;;100.28;51.35;;;9.30;99.90;;;;;;5045778;28;20433;-77
2024/02/11 07:31:33;;;;;;;101.75;54.00;;;9.30;99.90;;;;;;5046326;28;20086;-76
2024/02/11 07:34:00;;;;;;;96.60;50.92;;;9.30;99.90;;;;;;5049436;28;20131;-77
2024/02/11 07:36:26;;;;;;;99.25;49.90;;;9.30;99.90;;;;;;5066068;28;20094;-78
2024/02/11 07:38:52;;;;;;;104.63;51.35;;;9.30;99.90;;;;;;5045544;28;20040;-78
2024/02/11 07:41:18;;;;;;;92.22;49.67;;;9.20;99.90;;;;;;5062697;28;20047;-77
2024/02/11 07:43:46;;;;;;;95.63;52.05;;;9.20;99.90;;;;;;5060932;28;20117;-76
2024/02/11 07:46:15;;;;;;;95.63;50.72;;;9.30;99.90;;;;;;5066078;28;20047;-78
2024/02/11 07:48:41;;;;;;;96.17;51.43;;;9.30;99.90;;;;;;5063257;28;20044;-78
2024/02/11 07:51:08;;;;;;;92.90;51.22;;;9.30;99.90;;;;;;5079242;28;20554;-78
2024/02/11 07:53:33;;;;;;;90.38;50.30;;;9.30;99.90;;;;;;5064229;28;21188;-78
2024/02/11 07:56:00;;;;;;;92.13;51.92;;;9.30;99.90;;;;;;5045641;28;20608;-78
2024/02/11 07:58:26;;;;;;;85.53;49.88;;;9.30;99.90;;;;;;5064788;28;20046;-78
2024/02/11 08:00:51;;;;;;;90.57;50.97;;;9.30;99.90;;;;;;5062513;28;20655;-78
2024/02/11 08:03:20;;;;;;;88.22;51.65;;;9.30;99.90;;;;;;5063964;28;20029;-78
2024/02/11 08:05:46;;;;;;;92.55;52.05;;;9.30;99.90;;;;;;5094186;28;20041;-77
2024/02/11 08:08:15;;;;;;;85.90;50.92;;;9.30;99.90;;;;;;5079508;28;20040;-78
2024/02/11 08:10:41;;;;;;;83.57;49.78;;;9.30;99.90;;;;;;5062780;28;20097;-78
2024/02/11 08:13:07;;;;;;;84.82;51.05;;;9.30;99.90;;;;;;5045865;28;20048;-78
2024/02/11 08:15:37;;;;;;;90.82;50.15;;;9.40;99.90;;;;;;5077412;28;20076;-77
2024/02/11 08:18:08;;;;;;;86.37;49.93;;;9.40;99.90;;;;;;5062332;28;20495;-78
2024/02/11 08:20:33;;;;;;;85.00;49.88;;;9.40;99.90;;;;;;5097308;28;20282;-78
2024/02/11 08:22:59;;;;;;;82.75;51.00;;;9.30;99.90;;;;;;5050008;28;20048;-77
2024/02/11 08:25:25;;;;;;;92.30;51.13;;;9.40;99.90;;;;;;5062624;28;20351;-77
2024/02/11 08:27:51;;;;;;;90.45;51.65;;;9.40;99.90;;;;;;5063005;28;20060;-77
2024/02/11 08:30:17;;;;;;;87.55;51.75;;;9.40;99.90;;;;;;5062323;28;20048;-77
2024/02/11 08:32:43;;;;;;;84.95;49.50;;;9.40;99.90;;;;;;5048532;28;20410;-77
2024/02/11 08:35:08;;;;;;;87.65;51.55;;;9.40;99.90;;;;;;5064624;28;20048;-77
2024/02/11 08:37:35;;;;;;;89.78;52.33;;;9.40;99.90;;;;;;5049842;28;20040;-77
2024/02/11 08:40:04;;;;;;;82.25;49.75;;;9.40;99.90;;;;;;5080295;28;20664;-77
2024/02/11 08:42:30;;;;;;;83.67;49.83;;;9.40;99.90;;;;;;5066649;28;20495;-77
2024/02/11 08:44:56;;;;;;;78.53;48.78;;;9.40;99.90;;;;;;5052888;28;20385;-77
2024/02/11 08:47:24;;;;;;;86.13;54.75;;;9.40;99.90;;;;;;5065215;28;20059;-77
2024/02/11 08:49:50;;;;;;;77.95;49.88;;;9.40;99.90;;;;;;5048274;28;20041;-78
2024/02/11 08:52:16;;;;;;;78.68;48.63;;;9.50;99.90;;;;;;5063972;28;20041;-78
2024/02/11 08:54:42;;;;;;;79.43;50.70;;;9.40;99.90;;;;;;5051028;28;20060;-78
2024/02/11 08:57:14;;;;;;;77.38;50.95;;;9.50;99.90;;;;;;5061522;28;20039;-78
2024/02/11 08:59:41;;;;;;;77.13;50.63;;;9.50;99.90;;;;;;5074702;28;20398;-79
2024/02/11 09:02:11;;;;;;;77.88;51.45;;;9.50;99.90;;;;;;5068486;28;20296;-79
2024/02/11 09:04:37;;;;;;;76.70;49.43;;;9.50;99.90;;;;;;5076561;28;20049;-78
2024/02/11 09:07:09;;;;;;;77.03;51.40;;;9.60;99.90;;;;;;5051887;28;20094;-78
2024/02/11 09:09:35;;;;;;;75.22;51.38;;;9.60;99.90;;;;;;5080209;28;20494;-78
2024/02/11 09:12:05;;;;;;;71.35;48.80;;;9.60;99.90;;;;;;5048820;28;20040;-78
2024/02/11 09:14:32;;;;;;;69.13;48.58;;;9.60;99.90;;;;;;5101462;27;20084;-78
2024/02/11 09:17:02;;;;;;;65.28;50.92;;;9.70;99.90;;;;;;5065593;28;20051;-79
2024/02/11 09:19:28;;;;;;;64.95;51.53;;;9.70;99.90;;;;;;5048044;28;20111;-78
2024/02/11 09:21:55;;;;;;;61.53;49.97;;;9.70;99.90;;;;;;5053412;28;20570;-78
2024/02/11 09:24:22;;;;;;;64.22;51.03;;;9.80;99.90;;;;;;5082733;28;20506;-78
2024/02/11 09:26:51;;;;;;;66.00;52.83;;;9.80;99.90;;;;;;5049040;28;20048;-79
2024/02/11 09:29:17;;;;;;;63.33;50.13;;;9.80;99.90;;;;;;5081501;28;20052;-78
2024/02/11 09:31:43;;;;;;;61.80;50.13;;;9.90;99.90;;;;;;5064961;28;20046;-78
2024/02/11 09:34:10;;;;;;;63.40;50.08;;;9.90;99.90;;;;;;5049701;28;20129;-78
2024/02/11 09:36:38;;;;;;;61.50;49.33;;;9.90;99.90;;;;;;5047717;28;20057;-78
2024/02/11 09:39:05;;;;;;;58.70;48.92;;;9.90;99.90;;;;;;5047479;28;20564;-78
2024/02/11 09:41:32;;;;;;;57.47;46.67;;;9.90;99.90;;;;;;5048592;28;20186;-79
2024/02/11 09:44:02;;;;;;;58.55;47.60;;;9.90;99.90;;;;;;5063023;28;20127;-78
2024/02/11 09:46:37;;;;;;;56.20;45.30;;;9.90;99.90;;;;;;5065177;28;20064;-79
2024/02/11 09:49:18;;;;;;;58.88;45.58;;;9.90;99.90;;;;;;5064294;28;20044;-79
2024/02/11 09:51:51;;;;;;;58.33;46.65;;;9.90;99.90;;;;;;5050674;28;20049;-79
2024/02/11 09:54:18;;;;;;;60.85;47.08;;;9.90;99.90;;;;;;5062176;28;20048;-79
2024/02/11 09:56:44;;;;;;;54.97;45.60;;;9.90;99.90;;;;;;5065699;28;20577;-80
2024/02/11 09:59:10;;;;;;;56.15;46.08;;;9.90;99.90;;;;;;5081909;28;20123;-78
2024/02/11 10:01:38;;;;;;;56.85;45.50;;;9.90;99.90;;;;;;5048166;28;20084;-78
2024/02/11 10:04:07;;;;;;;52.90;44.03;;;9.90;99.90;;;;;;5048835;28;20044;-78
2024/02/11 10:06:42;;;;;;;57.22;45.85;;;10.00;99.90;;;;;;5082176;28;20067;-78
2024/02/11 10:09:12;;;;;;;56.20;44.50;;;10.00;99.90;;;;;;5045000;28;20124;-78
2024/02/11 10:11:41;;;;;;;56.58;45.67;;;9.90;99.90;;;;;;5064189;28;20326;-78
2024/02/11 10:14:13;;;;;;;57.80;45.42;;;9.90;99.90;;;;;;5082043;28;20052;-77
2024/02/11 10:16:40;;;;;;;55.10;45.25;;;9.90;99.90;;;;;;5048448;28;20052;-80
2024/02/11 10:19:07;;;;;;;57.65;46.10;;;9.90;99.90;;;;;;5079754;28;20703;-80
2024/02/11 10:21:36;;;;;;;59.80;45.78;;;9.90;99.90;;;;;;5048472;28;20044;-79
2024/02/11 10:24:03;;;;;;;60.28;48.22;;;9.90;99.90;;;;;;5047024;28;20044;-80
2024/02/11 10:26:31;;;;;;;58.42;45.45;;;9.90;99.90;;;;;;5064688;28;20032;-80
2024/02/11 10:29:04;;;;;;;63.55;46.88;;;9.90;99.90;;;;;;5083956;28;20036;-78
2024/02/11 10:31:30;;;;;;;58.65;42.88;;;9.90;99.90;;;;;;5048422;28;20040;-79
2024/02/11 10:33:57;;;;;;;53.22;43.85;;;9.90;99.90;;;;;;5049448;28;20501;-79
2024/02/11 10:36:26;;;;;;;55.03;42.38;;;9.90;99.90;;;;;;5063384;28;20075;-79
2024/02/11 10:38:56;;;;;;;48.97;41.30;;;9.90;99.90;;;;;;5049341;28;20055;-79
2024/02/11 10:41:26;;;;;;;50.15;39.17;;;9.90;99.90;;;;;;5050966;28;20426;-79
2024/02/11 10:43:52;;;;;;;40.88;35.75;;;9.90;99.90;;;;;;5046870;28;20394;-78
2024/02/11 10:46:20;;;;;;;43.20;35.65;;;9.90;99.90;;;;;;5047615;28;20437;-78
2024/02/11 10:48:46;;;;;;;37.55;32.33;;;9.90;99.90;;;;;;5048451;28;20048;-79
2024/02/11 10:51:23;;;;;;;35.35;31.13;;;9.90;99.90;;;;;;5044626;28;20047;-79
2024/02/11 10:53:57;;;;;;;32.03;28.67;;;9.90;99.90;;;;;;5048391;28;20389;-78
2024/02/11 10:56:24;;;;;;;28.63;25.52;;;9.80;99.90;;;;;;5065334;28;20494;-78
2024/02/11 10:59:10;;;;;;;20.30;18.30;;;9.70;99.90;;;;;;5047561;28;20105;-78
2024/02/11 11:01:40;;;;;;;17.08;15.27;;;9.70;99.90;;;;;;5047938;28;20044;-79
2024/02/11 11:04:17;;;;;;;14.23;12.93;;;9.70;99.90;;;;;;5050229;28;20052;-79
2024/02/11 11:06:43;;;;;;;16.65;14.95;;;9.50;99.90;;;;;;5048750;28;20090;-79
2024/02/11 11:09:11;;;;;;;18.00;16.17;;;9.50;99.90;;;;;;5047276;28;20052;-79
2024/02/11 11:11:37;;;;;;;16.23;14.70;;;9.40;99.90;;;;;;5078781;28;20048;-75
2024/02/11 11:14:10;;;;;;;15.45;13.13;;;9.30;99.90;;;;;;5046900;28;20052;-80
2024/02/11 11:16:42;;;;;;;12.55;11.43;;;9.30;99.90;;;;;;5048896;28;20033;-79
2024/02/11 11:19:12;;;;;;;12.02;10.82;;;9.20;99.90;;;;;;5060777;28;20115;-79
2024/02/11 11:21:38;;;;;;;12.55;10.82;;;9.10;99.90;;;;;;5049213;28;20064;-79
2024/02/11 11:24:04;;;;;;;12.10;10.38;;;9.10;99.90;;;;;;5042607;28;20079;-80
2024/02/11 11:26:30;;;;;;;10.75;8.73;;;9.10;99.90;;;;;;5064372;28;20506;-77
2024/02/11 11:29:03;;;;;;;10.88;8.82;;;9.00;99.90;;;;;;5062442;28;20157;-78
2024/02/11 11:31:34;;;;;;;13.32;9.30;;;9.00;99.90;;;;;;5063496;28;20044;-78
2024/02/11 11:34:01;;;;;;;9.65;8.48;;;9.00;99.90;;;;;;5044142;28;20048;-77
2024/02/11 11:36:28;;;;;;;8.98;7.93;;;9.00;99.90;;;;;;5046699;28;20053;-77
2024/02/11 11:39:05;;;;;;;9.05;7.90;;;9.00;99.90;;;;;;5059161;28;20036;-76
2024/02/11 11:41:33;;;;;;;10.55;7.72;;;9.00;99.90;;;;;;5064546;28;20050;-76
2024/02/11 11:44:00;;;;;;;9.73;8.30;;;9.00;99.90;;;;;;5045859;28;20469;-77
2024/02/11 11:46:26;;;;;;;11.38;7.60;;;9.00;99.90;;;;;;5043413;28;20073;-76
2024/02/11 11:48:56;;;;;;;11.68;7.25;;;9.00;99.90;;;;;;5047949;28;20076;-76
2024/02/11 11:51:23;;;;;;;9.88;6.32;;;9.00;99.90;;;;;;5044688;28;20048;-76
2024/02/11 11:53:51;;;;;;;11.23;6.50;;;9.10;99.90;;;;;;5046260;28;20049;-77
2024/02/11 11:56:18;;;;;;;13.45;6.65;;;9.10;99.90;;;;;;5041714;28;20048;-78
2024/02/11 11:58:52;;;;;;;10.80;6.35;;;9.10;99.90;;;;;;5096028;28;20028;-77
2024/02/11 12:01:19;;;;;;;12.60;6.35;;;9.10;99.90;;;;;;5044138;28;20035;-77
2024/02/11 12:03:45;;;;;;;9.77;5.68;;;9.10;99.90;;;;;;5046455;28;20459;-77
2024/02/11 12:06:11;;;;;;;10.85;5.47;;;9.10;99.90;;;;;;5052405;28;20102;-77
2024/02/11 12:08:37;;;;;;;10.13;4.85;;;9.10;99.90;;;;;;5060231;28;20101;-76
2024/02/11 12:11:06;;;;;;;8.80;4.85;;;9.10;99.90;;;;;;5063810;28;20045;-77
2024/02/11 12:13:33;;;;;;;9.02;4.85;;;9.10;99.90;;;;;;5079377;28;20075;-79
2024/02/11 12:16:02;;;;;;;10.63;5.28;;;9.10;99.90;;;;;;5076972;28;20571;-77
2024/02/11 12:18:29;;;;;;;13.48;5.40;;;9.10;99.90;;;;;;5044278;28;20094;-77
2024/02/11 12:31:40;;;;;;;9.63;5.93;;;9.10;99.90;;;;;;5092116;27;20400;-80
2024/02/11 12:34:09;;;;;;;9.73;6.63;;;9.10;99.90;;;;;;5070448;28;20090;-79
2024/02/11 12:36:38;;;;;;;12.32;6.47;;;9.20;99.90;;;;;;5075574;28;20044;-79
2024/02/11 12:39:05;;;;;;;12.57;8.60;;;9.20;99.90;;;;;;5065019;28;20669;-79
2024/02/11 12:41:32;;;;;;;13.43;8.68;;;9.30;99.90;;;;;;5073292;28;20048;-79
2024/02/11 12:44:05;;;;;;;13.05;8.77;;;9.30;99.90;;;;;;5061677;28;20051;-79
2024/02/11 12:46:35;;;;;;;16.98;9.35;;;9.30;99.90;;;;;;5077138;28;20122;-80
2024/02/11 12:49:08;;;;;;;14.15;9.15;;;9.30;99.90;;;;;;5093020;28;20047;-80
2024/02/11 12:51:37;;;;;;;12.30;8.88;;;9.30;99.90;;;;;;5071804;28;20128;-80